TPC724 CYCA-CYFT
Flight info
| Callsign | TPC724 |
|---|---|
| Flight time | 0h 56m |
| Altitude | 7000 |
| Route | JANJO/N0174F080 |
| Aircraft | C208/L-SDFGR/C |
Departure
| Time | 2026-04-11 18:37 |
|---|---|
| Airport | Cartwright Airport (CYCA) |
Arrival
| Time | 2026-04-11 19:34 |
|---|---|
| Airport | Makkovik Airport (CYFT) |
| Time | Latitude | Longitude | Altitude | Speed | Heading |
|---|---|---|---|---|---|
| 2026-04-11 18:04 | 53.68279 | -57.03868 | 40 ft | 0 kts | 145° |
| 2026-04-11 18:23 | 53.68281 | -57.03870 | 40 ft | 1 kts | 142° |
| 2026-04-11 18:23 | 53.68283 | -57.03873 | 40 ft | 0 kts | 129° |
| 2026-04-11 18:23 | 53.68282 | -57.03871 | 40 ft | 0 kts | 122° |
| 2026-04-11 18:24 | 53.68294 | -57.03875 | 40 ft | 1 kts | 308° |
| 2026-04-11 18:24 | 53.68305 | -57.03894 | 40 ft | 0 kts | 323° |
| 2026-04-11 18:33 | 53.68305 | -57.03895 | 40 ft | 0 kts | 324° |
| 2026-04-11 18:33 | 53.68313 | -57.03904 | 40 ft | 2 kts | 324° |
| 2026-04-11 18:33 | 53.68324 | -57.03918 | 40 ft | 2 kts | 321° |
| 2026-04-11 18:34 | 53.68341 | -57.03960 | 41 ft | 6 kts | 280° |
| 2026-04-11 18:34 | 53.68319 | -57.04039 | 41 ft | 10 kts | 234° |
| 2026-04-11 18:34 | 53.68265 | -57.04171 | 41 ft | 15 kts | 237° |
| 2026-04-11 18:34 | 53.68204 | -57.04327 | 39 ft | 16 kts | 239° |
| 2026-04-11 18:35 | 53.68133 | -57.04502 | 34 ft | 19 kts | 239° |
| 2026-04-11 18:35 | 53.68052 | -57.04699 | 28 ft | 22 kts | 240° |
| 2026-04-11 18:35 | 53.67990 | -57.04873 | 22 ft | 12 kts | 237° |
| 2026-04-11 18:35 | 53.67960 | -57.04933 | 20 ft | 2 kts | 147° |
| 2026-04-11 18:36 | 53.67960 | -57.04929 | 20 ft | 0 kts | 53° |
| 2026-04-11 18:36 | 53.68008 | -57.04818 | 24 ft | 36 kts | 52° |
| 2026-04-11 18:36 | 53.68243 | -57.04241 | 52 ft | 77 kts | 51° |
| 2026-04-11 18:36 | 53.68562 | -57.03493 | 309 ft | 77 kts | 47° |
| 2026-04-11 18:37 | 53.68962 | -57.02763 | 467 ft | 91 kts | 41° |
| 2026-04-11 18:37 | 53.69501 | -57.02156 | 633 ft | 99 kts | 28° |
| 2026-04-11 18:37 | 53.70101 | -57.01508 | 874 ft | 101 kts | 26° |
| 2026-04-11 18:37 | 53.70747 | -57.01293 | 1215 ft | 96 kts | 2° |
| 2026-04-11 18:38 | 53.71425 | -57.01549 | 1420 ft | 105 kts | 343° |
| 2026-04-11 18:38 | 53.72030 | -57.02236 | 1710 ft | 105 kts | 335° |
| 2026-04-11 18:38 | 53.72648 | -57.02843 | 1953 ft | 103 kts | 346° |
| 2026-04-11 18:38 | 53.73337 | -57.03108 | 2229 ft | 101 kts | 354° |
| 2026-04-11 18:39 | 53.74027 | -57.03243 | 2500 ft | 100 kts | 358° |
| 2026-04-11 18:39 | 53.74742 | -57.03296 | 2799 ft | 102 kts | 1° |
| 2026-04-11 18:39 | 53.75447 | -57.03283 | 3145 ft | 102 kts | 2° |
| 2026-04-11 18:39 | 53.76148 | -57.03245 | 3437 ft | 101 kts | 6° |
| 2026-04-11 18:40 | 53.76855 | -57.03166 | 3630 ft | 103 kts | 6° |
| 2026-04-11 18:40 | 53.77572 | -57.03093 | 3831 ft | 105 kts | 6° |
| 2026-04-11 18:40 | 53.78301 | -57.03015 | 4037 ft | 106 kts | 5° |
| 2026-04-11 18:40 | 53.79039 | -57.02933 | 4240 ft | 107 kts | 6° |
| 2026-04-11 18:41 | 53.79780 | -57.02846 | 4447 ft | 109 kts | 5° |
| 2026-04-11 18:41 | 53.80542 | -57.02760 | 4678 ft | 109 kts | 6° |
| 2026-04-11 18:41 | 53.81297 | -57.02668 | 4907 ft | 110 kts | 6° |
| 2026-04-11 18:41 | 53.82070 | -57.02574 | 5127 ft | 111 kts | 6° |
| 2026-04-11 18:42 | 53.82847 | -57.02478 | 5350 ft | 112 kts | 6° |
| 2026-04-11 18:42 | 53.83624 | -57.02384 | 5555 ft | 114 kts | 6° |
| 2026-04-11 18:42 | 53.84410 | -57.02290 | 5777 ft | 113 kts | 6° |
| 2026-04-11 18:42 | 53.85204 | -57.02192 | 5981 ft | 115 kts | 6° |
| 2026-04-11 18:43 | 53.85999 | -57.02095 | 6188 ft | 115 kts | 5° |
| 2026-04-11 18:43 | 53.86803 | -57.01999 | 6397 ft | 116 kts | 5° |
| 2026-04-11 18:43 | 53.87610 | -57.01902 | 6582 ft | 117 kts | 5° |
| 2026-04-11 18:43 | 53.88425 | -57.01805 | 6767 ft | 119 kts | 5° |
| 2026-04-11 18:44 | 53.89247 | -57.01707 | 6944 ft | 121 kts | 5° |
| 2026-04-11 18:44 | 53.90131 | -57.01601 | 6981 ft | 132 kts | 5° |
| 2026-04-11 18:44 | 53.91073 | -57.01488 | 6980 ft | 141 kts | 5° |
| 2026-04-11 18:44 | 53.92073 | -57.01365 | 6977 ft | 146 kts | 6° |
| 2026-04-11 18:45 | 53.93099 | -57.01240 | 6974 ft | 148 kts | 6° |
| 2026-04-11 18:45 | 53.94130 | -57.01112 | 6972 ft | 150 kts | 6° |
| 2026-04-11 18:45 | 53.95178 | -57.00982 | 6974 ft | 151 kts | 5° |
| 2026-04-11 18:45 | 53.96230 | -57.00854 | 6974 ft | 151 kts | 5° |
| 2026-04-11 18:46 | 53.97263 | -57.00729 | 6973 ft | 151 kts | 5° |
| 2026-04-11 18:46 | 53.98317 | -57.00602 | 6973 ft | 150 kts | 5° |
| 2026-04-11 18:46 | 53.99361 | -57.00476 | 6974 ft | 151 kts | 5° |
| 2026-04-11 18:46 | 54.00399 | -57.00352 | 6973 ft | 151 kts | 5° |
| 2026-04-11 18:47 | 54.01450 | -57.00225 | 6973 ft | 151 kts | 5° |
| 2026-04-11 18:47 | 54.02506 | -57.00100 | 6973 ft | 152 kts | 4° |
| 2026-04-11 18:47 | 54.03487 | -57.00700 | 6989 ft | 156 kts | 321° |
| 2026-04-11 18:47 | 54.04261 | -57.01993 | 6976 ft | 159 kts | 317° |
| 2026-04-11 18:48 | 54.05004 | -57.03395 | 6975 ft | 160 kts | 314° |
| 2026-04-11 18:48 | 54.05737 | -57.04837 | 6973 ft | 160 kts | 313° |
| 2026-04-11 18:48 | 54.06456 | -57.06264 | 6973 ft | 160 kts | 313° |
| 2026-04-11 18:48 | 54.07181 | -57.07721 | 6974 ft | 160 kts | 313° |
| 2026-04-11 18:49 | 54.07896 | -57.09160 | 6973 ft | 161 kts | 313° |
| 2026-04-11 18:49 | 54.08624 | -57.10623 | 6973 ft | 161 kts | 313° |
| 2026-04-11 18:49 | 54.09339 | -57.12067 | 6970 ft | 161 kts | 313° |
| 2026-04-11 18:49 | 54.10065 | -57.13525 | 6967 ft | 161 kts | 313° |
| 2026-04-11 18:50 | 54.10782 | -57.14974 | 6964 ft | 161 kts | 313° |
| 2026-04-11 18:50 | 54.11502 | -57.16424 | 6959 ft | 161 kts | 313° |
| 2026-04-11 18:50 | 54.12223 | -57.17884 | 6959 ft | 160 kts | 313° |
| 2026-04-11 18:50 | 54.12940 | -57.19331 | 6960 ft | 160 kts | 313° |
| 2026-04-11 18:51 | 54.13663 | -57.20793 | 6959 ft | 161 kts | 313° |
| 2026-04-11 18:51 | 54.14383 | -57.22253 | 6960 ft | 161 kts | 313° |
| 2026-04-11 18:51 | 54.15098 | -57.23695 | 6961 ft | 161 kts | 313° |
| 2026-04-11 18:51 | 54.15822 | -57.25166 | 6960 ft | 161 kts | 313° |
| 2026-04-11 18:52 | 54.16545 | -57.26620 | 6959 ft | 161 kts | 313° |
| 2026-04-11 18:52 | 54.17263 | -57.28080 | 6959 ft | 161 kts | 313° |
| 2026-04-11 18:52 | 54.17979 | -57.29530 | 6961 ft | 161 kts | 313° |
| 2026-04-11 18:52 | 54.18703 | -57.31001 | 6963 ft | 161 kts | 313° |
| 2026-04-11 18:53 | 54.19417 | -57.32449 | 6965 ft | 160 kts | 313° |
| 2026-04-11 18:53 | 54.20131 | -57.33901 | 6965 ft | 160 kts | 313° |
| 2026-04-11 18:53 | 54.20849 | -57.35360 | 6971 ft | 160 kts | 313° |
| 2026-04-11 18:53 | 54.21560 | -57.36811 | 6976 ft | 160 kts | 313° |
| 2026-04-11 18:54 | 54.22279 | -57.38274 | 6976 ft | 160 kts | 313° |
| 2026-04-11 18:54 | 54.22992 | -57.39727 | 6975 ft | 161 kts | 313° |
| 2026-04-11 18:54 | 54.23709 | -57.41186 | 6975 ft | 161 kts | 313° |
| 2026-04-11 18:54 | 54.24434 | -57.42663 | 6975 ft | 161 kts | 313° |
| 2026-04-11 18:55 | 54.25145 | -57.44114 | 6976 ft | 161 kts | 313° |
| 2026-04-11 18:55 | 54.25869 | -57.45594 | 6977 ft | 161 kts | 313° |
| 2026-04-11 18:55 | 54.26586 | -57.47057 | 6978 ft | 161 kts | 313° |
| 2026-04-11 18:55 | 54.27296 | -57.48511 | 6980 ft | 161 kts | 313° |
| 2026-04-11 18:56 | 54.28017 | -57.49985 | 6979 ft | 161 kts | 313° |
| 2026-04-11 18:56 | 54.28730 | -57.51446 | 6980 ft | 161 kts | 313° |
| 2026-04-11 18:56 | 54.29451 | -57.52922 | 6980 ft | 160 kts | 313° |
| 2026-04-11 18:56 | 54.30163 | -57.54383 | 6981 ft | 160 kts | 313° |
| 2026-04-11 18:57 | 54.30874 | -57.55838 | 6980 ft | 160 kts | 313° |
| 2026-04-11 18:57 | 54.31592 | -57.57312 | 6978 ft | 160 kts | 313° |
| 2026-04-11 18:57 | 54.32305 | -57.58776 | 6980 ft | 160 kts | 313° |
| 2026-04-11 18:57 | 54.33015 | -57.60234 | 6983 ft | 160 kts | 313° |
| 2026-04-11 18:58 | 54.33738 | -57.61717 | 6984 ft | 161 kts | 313° |
| 2026-04-11 18:58 | 54.34449 | -57.63182 | 6985 ft | 161 kts | 313° |
| 2026-04-11 18:58 | 54.35166 | -57.64661 | 6986 ft | 161 kts | 313° |
| 2026-04-11 18:58 | 54.35885 | -57.66140 | 6983 ft | 161 kts | 313° |
| 2026-04-11 18:59 | 54.36598 | -57.67610 | 6982 ft | 161 kts | 312° |
| 2026-04-11 18:59 | 54.37310 | -57.69078 | 6982 ft | 161 kts | 312° |
| 2026-04-11 18:59 | 54.38029 | -57.70562 | 6980 ft | 161 kts | 313° |
| 2026-04-11 18:59 | 54.38744 | -57.72036 | 6978 ft | 161 kts | 313° |
| 2026-04-11 19:00 | 54.39457 | -57.73510 | 6977 ft | 160 kts | 313° |
| 2026-04-11 19:00 | 54.40171 | -57.74984 | 6981 ft | 160 kts | 313° |
| 2026-04-11 19:00 | 54.40881 | -57.76453 | 6982 ft | 160 kts | 313° |
| 2026-04-11 19:00 | 54.41587 | -57.77914 | 6982 ft | 160 kts | 313° |
| 2026-04-11 19:01 | 54.42300 | -57.79390 | 6965 ft | 161 kts | 313° |
| 2026-04-11 19:01 | 54.43025 | -57.80890 | 6917 ft | 163 kts | 312° |
| 2026-04-11 19:01 | 54.43745 | -57.82384 | 6911 ft | 163 kts | 313° |
| 2026-04-11 19:01 | 54.44466 | -57.83879 | 6913 ft | 162 kts | 313° |
| 2026-04-11 19:02 | 54.45191 | -57.85383 | 6910 ft | 162 kts | 312° |
| 2026-04-11 19:02 | 54.45908 | -57.86870 | 6903 ft | 162 kts | 312° |
| 2026-04-11 19:02 | 54.46619 | -57.88352 | 6901 ft | 162 kts | 313° |
| 2026-04-11 19:02 | 54.47342 | -57.89852 | 6904 ft | 161 kts | 312° |
| 2026-04-11 19:03 | 54.48052 | -57.91333 | 6904 ft | 161 kts | 313° |
| 2026-04-11 19:03 | 54.48760 | -57.92807 | 6906 ft | 161 kts | 313° |
| 2026-04-11 19:03 | 54.49479 | -57.94305 | 6905 ft | 161 kts | 313° |
| 2026-04-11 19:03 | 54.50188 | -57.95781 | 6905 ft | 161 kts | 313° |
| 2026-04-11 19:04 | 54.50897 | -57.97260 | 6906 ft | 161 kts | 312° |
| 2026-04-11 19:04 | 54.51607 | -57.98741 | 6906 ft | 161 kts | 313° |
| 2026-04-11 19:04 | 54.52313 | -58.00217 | 6907 ft | 161 kts | 313° |
| 2026-04-11 19:04 | 54.53031 | -58.01717 | 6907 ft | 161 kts | 313° |
| 2026-04-11 19:05 | 54.53505 | -58.02708 | 6908 ft | 161 kts | 312° |
| 2026-04-11 19:05 | 54.54456 | -58.04696 | 6907 ft | 162 kts | 312° |
| 2026-04-11 19:05 | 54.55168 | -58.06189 | 6909 ft | 162 kts | 312° |
| 2026-04-11 19:05 | 54.55875 | -58.07673 | 6909 ft | 161 kts | 313° |
| 2026-04-11 19:06 | 54.56594 | -58.09180 | 6910 ft | 161 kts | 313° |
| 2026-04-11 19:06 | 54.57304 | -58.10667 | 6909 ft | 161 kts | 313° |
| 2026-04-11 19:06 | 54.58010 | -58.12147 | 6911 ft | 161 kts | 313° |
| 2026-04-11 19:06 | 54.58724 | -58.13646 | 6910 ft | 160 kts | 313° |
| 2026-04-11 19:07 | 54.59432 | -58.15132 | 6910 ft | 160 kts | 313° |
| 2026-04-11 19:07 | 54.60131 | -58.16603 | 6909 ft | 160 kts | 313° |
| 2026-04-11 19:07 | 54.60836 | -58.18082 | 6908 ft | 161 kts | 313° |
| 2026-04-11 19:07 | 54.61528 | -58.19603 | 6911 ft | 162 kts | 304° |
| 2026-04-11 19:08 | 54.62042 | -58.21339 | 6913 ft | 163 kts | 301° |
| 2026-04-11 19:08 | 54.62548 | -58.23119 | 6916 ft | 164 kts | 298° |
| 2026-04-11 19:08 | 54.63029 | -58.24878 | 6914 ft | 164 kts | 298° |
| 2026-04-11 19:08 | 54.63512 | -58.26672 | 6910 ft | 164 kts | 298° |
| 2026-04-11 19:09 | 54.63986 | -58.28451 | 6910 ft | 164 kts | 298° |
| 2026-04-11 19:09 | 54.64463 | -58.30244 | 6909 ft | 164 kts | 298° |
| 2026-04-11 19:09 | 54.64936 | -58.32030 | 6908 ft | 164 kts | 298° |
| 2026-04-11 19:09 | 54.65408 | -58.33813 | 6907 ft | 164 kts | 298° |
| 2026-04-11 19:10 | 54.65880 | -58.35600 | 6905 ft | 164 kts | 298° |
| 2026-04-11 19:10 | 54.66352 | -58.37390 | 6896 ft | 164 kts | 298° |
| 2026-04-11 19:10 | 54.66825 | -58.39182 | 6892 ft | 164 kts | 298° |
| 2026-04-11 19:10 | 54.67298 | -58.40982 | 6892 ft | 164 kts | 298° |
| 2026-04-11 19:11 | 54.67770 | -58.42778 | 6889 ft | 164 kts | 298° |
| 2026-04-11 19:11 | 54.68243 | -58.44582 | 6885 ft | 165 kts | 297° |
| 2026-04-11 19:11 | 54.68711 | -58.46370 | 6881 ft | 165 kts | 297° |
| 2026-04-11 19:11 | 54.69182 | -58.48163 | 6879 ft | 164 kts | 298° |
| 2026-04-11 19:12 | 54.69659 | -58.49983 | 6871 ft | 164 kts | 298° |
| 2026-04-11 19:12 | 54.70125 | -58.51772 | 6873 ft | 164 kts | 298° |
| 2026-04-11 19:12 | 54.70593 | -58.53562 | 6879 ft | 164 kts | 298° |
| 2026-04-11 19:12 | 54.71059 | -58.55344 | 6880 ft | 164 kts | 298° |
| 2026-04-11 19:13 | 54.71536 | -58.57166 | 6884 ft | 164 kts | 298° |
| 2026-04-11 19:13 | 54.72003 | -58.58958 | 6886 ft | 164 kts | 298° |
| 2026-04-11 19:13 | 54.72466 | -58.60741 | 6891 ft | 164 kts | 298° |
| 2026-04-11 19:13 | 54.72936 | -58.62546 | 6897 ft | 164 kts | 298° |
| 2026-04-11 19:14 | 54.73403 | -58.64344 | 6907 ft | 164 kts | 298° |
| 2026-04-11 19:14 | 54.73875 | -58.66161 | 6910 ft | 165 kts | 297° |
| 2026-04-11 19:14 | 54.74349 | -58.67983 | 6911 ft | 165 kts | 297° |
| 2026-04-11 19:14 | 54.74817 | -58.69787 | 6913 ft | 165 kts | 297° |
| 2026-04-11 19:15 | 54.75281 | -58.71585 | 6919 ft | 165 kts | 297° |
| 2026-04-11 19:15 | 54.75754 | -58.73405 | 6926 ft | 164 kts | 297° |
| 2026-04-11 19:15 | 54.76220 | -58.75203 | 6931 ft | 164 kts | 297° |
| 2026-04-11 19:15 | 54.76685 | -58.76999 | 6937 ft | 164 kts | 297° |
| 2026-04-11 19:16 | 54.77146 | -58.78784 | 6943 ft | 163 kts | 298° |
| 2026-04-11 19:16 | 54.77615 | -58.80598 | 6945 ft | 163 kts | 297° |
| 2026-04-11 19:16 | 54.78077 | -58.82391 | 6943 ft | 164 kts | 297° |
| 2026-04-11 19:16 | 54.78542 | -58.84190 | 6945 ft | 164 kts | 297° |
| 2026-04-11 19:17 | 54.79002 | -58.85955 | 6910 ft | 157 kts | 298° |
| 2026-04-11 19:17 | 54.79430 | -58.87633 | 6866 ft | 152 kts | 297° |
| 2026-04-11 19:17 | 54.79864 | -58.89315 | 6723 ft | 153 kts | 298° |
| 2026-04-11 19:17 | 54.80299 | -58.91010 | 6589 ft | 154 kts | 298° |
| 2026-04-11 19:18 | 54.80735 | -58.92706 | 6463 ft | 154 kts | 298° |
| 2026-04-11 19:18 | 54.81167 | -58.94395 | 6362 ft | 153 kts | 298° |
| 2026-04-11 19:18 | 54.81597 | -58.96067 | 6280 ft | 152 kts | 298° |
| 2026-04-11 19:18 | 54.82026 | -58.97745 | 6196 ft | 150 kts | 298° |
| 2026-04-11 19:19 | 54.82449 | -58.99393 | 6116 ft | 150 kts | 298° |
| 2026-04-11 19:19 | 54.82870 | -59.01035 | 6033 ft | 149 kts | 298° |
| 2026-04-11 19:19 | 54.83289 | -59.02674 | 5947 ft | 149 kts | 298° |
| 2026-04-11 19:19 | 54.83709 | -59.04316 | 5863 ft | 149 kts | 298° |
| 2026-04-11 19:20 | 54.84129 | -59.05959 | 5782 ft | 149 kts | 298° |
| 2026-04-11 19:20 | 54.84548 | -59.07596 | 5698 ft | 150 kts | 298° |
| 2026-04-11 19:20 | 54.84970 | -59.09258 | 5593 ft | 151 kts | 298° |
| 2026-04-11 19:20 | 54.85393 | -59.10921 | 5484 ft | 152 kts | 299° |
| 2026-04-11 19:21 | 54.85824 | -59.12609 | 5376 ft | 152 kts | 299° |
| 2026-04-11 19:21 | 54.86248 | -59.14280 | 5264 ft | 152 kts | 298° |
| 2026-04-11 19:21 | 54.86674 | -59.15951 | 5154 ft | 152 kts | 299° |
| 2026-04-11 19:21 | 54.87103 | -59.17641 | 5035 ft | 152 kts | 299° |
| 2026-04-11 19:22 | 54.87528 | -59.19312 | 4898 ft | 153 kts | 299° |
| 2026-04-11 19:22 | 54.87957 | -59.21001 | 4762 ft | 153 kts | 299° |
| 2026-04-11 19:22 | 54.88387 | -59.22701 | 4620 ft | 151 kts | 299° |
| 2026-04-11 19:22 | 54.88808 | -59.24362 | 4481 ft | 150 kts | 299° |
| 2026-04-11 19:23 | 54.89224 | -59.26002 | 4346 ft | 149 kts | 300° |
| 2026-04-11 19:23 | 54.89640 | -59.27651 | 4210 ft | 149 kts | 300° |
| 2026-04-11 19:23 | 54.90057 | -59.29299 | 4068 ft | 148 kts | 300° |
| 2026-04-11 19:23 | 54.90465 | -59.30914 | 3923 ft | 145 kts | 300° |
| 2026-04-11 19:24 | 54.90863 | -59.32494 | 3810 ft | 142 kts | 301° |
| 2026-04-11 19:24 | 54.91255 | -59.34055 | 3701 ft | 140 kts | 301° |
| 2026-04-11 19:24 | 54.91646 | -59.35610 | 3584 ft | 139 kts | 301° |
| 2026-04-11 19:24 | 54.92029 | -59.37125 | 3462 ft | 138 kts | 302° |
| 2026-04-11 19:25 | 54.92628 | -59.38247 | 3389 ft | 120 kts | 332° |
| 2026-04-11 19:25 | 54.93322 | -59.39024 | 3288 ft | 116 kts | 338° |
| 2026-04-11 19:25 | 54.94011 | -59.39706 | 3204 ft | 111 kts | 339° |
| 2026-04-11 19:25 | 54.94673 | -59.40343 | 3131 ft | 108 kts | 339° |
| 2026-04-11 19:26 | 54.95320 | -59.40961 | 3060 ft | 107 kts | 338° |
| 2026-04-11 19:26 | 54.95988 | -59.41598 | 3010 ft | 109 kts | 338° |
| 2026-04-11 19:26 | 54.96656 | -59.42233 | 2960 ft | 110 kts | 338° |
| 2026-04-11 19:26 | 54.97327 | -59.42873 | 2896 ft | 111 kts | 338° |
| 2026-04-11 19:27 | 54.97998 | -59.43509 | 2843 ft | 110 kts | 338° |
| 2026-04-11 19:27 | 54.98680 | -59.44137 | 2766 ft | 110 kts | 344° |
| 2026-04-11 19:27 | 54.99399 | -59.44011 | 2677 ft | 106 kts | 32° |
| 2026-04-11 19:27 | 54.99922 | -59.43126 | 2599 ft | 107 kts | 49° |
| 2026-04-11 19:28 | 55.00365 | -59.42063 | 2522 ft | 107 kts | 53° |
| 2026-04-11 19:28 | 55.00766 | -59.40962 | 2445 ft | 108 kts | 56° |
| 2026-04-11 19:28 | 55.01149 | -59.39839 | 2360 ft | 108 kts | 56° |
| 2026-04-11 19:28 | 55.01525 | -59.38696 | 2267 ft | 109 kts | 57° |
| 2026-04-11 19:29 | 55.01895 | -59.37543 | 2195 ft | 106 kts | 57° |
| 2026-04-11 19:29 | 55.02238 | -59.36461 | 2146 ft | 102 kts | 57° |
| 2026-04-11 19:29 | 55.02580 | -59.35383 | 2065 ft | 102 kts | 57° |
| 2026-04-11 19:29 | 55.02922 | -59.34293 | 1981 ft | 102 kts | 57° |
| 2026-04-11 19:30 | 55.03255 | -59.33232 | 1913 ft | 97 kts | 56° |
| 2026-04-11 19:30 | 55.03582 | -59.32192 | 1778 ft | 99 kts | 55° |
| 2026-04-11 19:30 | 55.03913 | -59.31140 | 1646 ft | 99 kts | 57° |
| 2026-04-11 19:30 | 55.04240 | -59.30093 | 1512 ft | 96 kts | 57° |
| 2026-04-11 19:31 | 55.04556 | -59.29067 | 1389 ft | 95 kts | 56° |
| 2026-04-11 19:31 | 55.04871 | -59.28074 | 1264 ft | 93 kts | 56° |
| 2026-04-11 19:31 | 55.05179 | -59.27081 | 1143 ft | 93 kts | 56° |
| 2026-04-11 19:31 | 55.05487 | -59.26073 | 1023 ft | 93 kts | 62° |
| 2026-04-11 19:32 | 55.05782 | -59.25067 | 892 ft | 94 kts | 66° |
| 2026-04-11 19:32 | 55.06070 | -59.24049 | 786 ft | 89 kts | 68° |
| 2026-04-11 19:32 | 55.06390 | -59.23165 | 696 ft | 84 kts | 60° |
| 2026-04-11 19:32 | 55.06716 | -59.22352 | 661 ft | 82 kts | 53° |
| 2026-04-11 19:33 | 55.07010 | -59.21468 | 579 ft | 86 kts | 48° |
| 2026-04-11 19:33 | 55.07299 | -59.20519 | 463 ft | 90 kts | 62° |
| 2026-04-11 19:33 | 55.07513 | -59.19593 | 262 ft | 74 kts | 57° |
| 2026-04-11 19:33 | 55.07706 | -59.18890 | 221 ft | 51 kts | 63° |
| 2026-04-11 19:34 | 55.07796 | -59.18513 | 213 ft | 20 kts | 69° |
| 2026-04-11 19:34 | 55.07834 | -59.18367 | 210 ft | 11 kts | 43° |
| 2026-04-11 19:34 | 55.07870 | -59.18343 | 207 ft | 0 kts | 13° |
| 2026-04-11 19:35 | 55.07871 | -59.18343 | 207 ft | 0 kts | 12° |
| 2026-04-11 19:35 | 55.07879 | -59.18340 | 207 ft | 0 kts | 12° |
| 2026-04-11 19:35 | 55.07892 | -59.18328 | 206 ft | 5 kts | 40° |
| 2026-04-11 19:35 | 55.07907 | -59.18297 | 204 ft | 0 kts | 49° |